sensor_id;sensor_type;location;lat;lon;timestamp;pressure;altitude;pressure_sealevel;temperature;humidity
70370;BME280;57790;51.356;-2.906;2022-07-29T00:01:23;101873.56;;;18.39;54.61
70370;BME280;57790;51.356;-2.906;2022-07-29T00:04:24;101875.41;;;18.38;55.30
70370;BME280;57790;51.356;-2.906;2022-07-29T00:07:24;101870.06;;;18.38;54.84
70370;BME280;57790;51.356;-2.906;2022-07-29T00:10:24;101873.66;;;18.31;53.52
70370;BME280;57790;51.356;-2.906;2022-07-29T00:13:25;101869.88;;;18.25;53.65
70370;BME280;57790;51.356;-2.906;2022-07-29T00:16:25;101891.53;;;18.24;54.12
70370;BME280;57790;51.356;-2.906;2022-07-29T00:19:25;101878.63;;;18.19;54.58
70370;BME280;57790;51.356;-2.906;2022-07-29T00:22:26;101877.81;;;18.19;54.34
70370;BME280;57790;51.356;-2.906;2022-07-29T00:25:26;101878.00;;;18.17;54.63
70370;BME280;57790;51.356;-2.906;2022-07-29T00:28:27;101884.19;;;18.18;55.25
70370;BME280;57790;51.356;-2.906;2022-07-29T00:31:27;101878.38;;;18.14;55.02
70370;BME280;57790;51.356;-2.906;2022-07-29T00:34:28;101876.06;;;18.11;55.01
70370;BME280;57790;51.356;-2.906;2022-07-29T00:37:46;101875.88;;;18.12;55.49
70370;BME280;57790;51.356;-2.906;2022-07-29T00:40:47;101885.78;;;18.12;55.76
70370;BME280;57790;51.356;-2.906;2022-07-29T00:43:48;101878.75;;;18.11;56.51
70370;BME280;57790;51.356;-2.906;2022-07-29T00:46:49;101874.75;;;18.07;56.69
70370;BME280;57790;51.356;-2.906;2022-07-29T00:49:49;101872.25;;;18.05;56.26
70370;BME280;57790;51.356;-2.906;2022-07-29T00:52:50;101876.13;;;18.03;56.73
70370;BME280;57790;51.356;-2.906;2022-07-29T00:55:58;101868.47;;;18.00;56.40
70370;BME280;57790;51.356;-2.906;2022-07-29T00:58:59;101869.84;;;17.96;56.74
70370;BME280;57790;51.356;-2.906;2022-07-29T01:02:00;101874.19;;;17.97;57.32
70370;BME280;57790;51.356;-2.906;2022-07-29T01:05:01;101873.56;;;17.95;57.54
70370;BME280;57790;51.356;-2.906;2022-07-29T01:08:02;101880.47;;;17.89;57.66
70370;BME280;57790;51.356;-2.906;2022-07-29T01:11:02;101874.63;;;17.86;57.60
70370;BME280;57790;51.356;-2.906;2022-07-29T01:14:03;101875.84;;;17.83;58.13
70370;BME280;57790;51.356;-2.906;2022-07-29T01:17:12;101869.34;;;17.77;58.71
70370;BME280;57790;51.356;-2.906;2022-07-29T01:20:26;101868.41;;;17.70;58.42
70370;BME280;57790;51.356;-2.906;2022-07-29T01:26:50;101866.13;;;17.59;59.02
70370;BME280;57790;51.356;-2.906;2022-07-29T01:29:55;101873.69;;;17.55;58.61
70370;BME280;57790;51.356;-2.906;2022-07-29T01:33:00;101873.88;;;17.54;58.83
70370;BME280;57790;51.356;-2.906;2022-07-29T01:36:07;101869.03;;;17.49;58.88
70370;BME280;57790;51.356;-2.906;2022-07-29T01:39:26;101876.09;;;17.50;58.86
70370;BME280;57790;51.356;-2.906;2022-07-29T01:42:43;101872.44;;;17.43;59.25
70370;BME280;57790;51.356;-2.906;2022-07-29T01:45:59;101872.16;;;17.38;59.42
70370;BME280;57790;51.356;-2.906;2022-07-29T01:49:13;101873.34;;;17.36;59.85
70370;BME280;57790;51.356;-2.906;2022-07-29T01:52:20;101871.38;;;17.30;59.52
70370;BME280;57790;51.356;-2.906;2022-07-29T01:55:25;101868.06;;;17.28;59.56
70370;BME280;57790;51.356;-2.906;2022-07-29T01:58:28;101872.94;;;17.24;60.02
70370;BME280;57790;51.356;-2.906;2022-07-29T02:01:31;101873.81;;;17.16;59.89
70370;BME280;57790;51.356;-2.906;2022-07-29T02:04:33;101875.38;;;17.11;60.21
70370;BME280;57790;51.356;-2.906;2022-07-29T02:07:36;101874.34;;;17.12;59.84
70370;BME280;57790;51.356;-2.906;2022-07-29T02:10:38;101876.06;;;17.05;60.14
70370;BME280;57790;51.356;-2.906;2022-07-29T02:13:41;101879.75;;;17.04;60.03
70370;BME280;57790;51.356;-2.906;2022-07-29T02:16:43;101875.13;;;16.98;60.78
70370;BME280;57790;51.356;-2.906;2022-07-29T02:19:44;101874.97;;;16.91;60.70
70370;BME280;57790;51.356;-2.906;2022-07-29T02:22:46;101872.13;;;16.92;60.88
70370;BME280;57790;51.356;-2.906;2022-07-29T02:25:56;101876.34;;;16.87;61.18
70370;BME280;57790;51.356;-2.906;2022-07-29T02:28:58;101872.72;;;16.80;61.53
70370;BME280;57790;51.356;-2.906;2022-07-29T02:32:00;101873.72;;;16.79;61.48
70370;BME280;57790;51.356;-2.906;2022-07-29T02:35:03;101873.38;;;16.74;61.51
70370;BME280;57790;51.356;-2.906;2022-07-29T02:38:04;101873.56;;;16.72;61.58
70370;BME280;57790;51.356;-2.906;2022-07-29T02:41:50;101872.72;;;16.72;61.91
70370;BME280;57790;51.356;-2.906;2022-07-29T02:44:51;101871.06;;;16.71;62.20
70370;BME280;57790;51.356;-2.906;2022-07-29T02:47:53;101874.22;;;16.74;62.08
70370;BME280;57790;51.356;-2.906;2022-07-29T02:51:05;101867.06;;;16.66;61.68
70370;BME280;57790;51.356;-2.906;2022-07-29T02:54:07;101875.75;;;16.60;62.32
70370;BME280;57790;51.356;-2.906;2022-07-29T02:57:14;101875.94;;;16.59;62.29
70370;BME280;57790;51.356;-2.906;2022-07-29T03:00:19;101867.25;;;16.57;62.52
70370;BME280;57790;51.356;-2.906;2022-07-29T03:03:21;101865.94;;;16.53;62.13
70370;BME280;57790;51.356;-2.906;2022-07-29T03:06:24;101865.94;;;16.53;62.16
70370;BME280;57790;51.356;-2.906;2022-07-29T03:09:26;101856.41;;;16.50;62.38
70370;BME280;57790;51.356;-2.906;2022-07-29T03:12:28;101861.44;;;16.45;62.67
70370;BME280;57790;51.356;-2.906;2022-07-29T03:15:29;101862.44;;;16.44;62.53
70370;BME280;57790;51.356;-2.906;2022-07-29T03:18:30;101851.09;;;16.34;62.83
70370;BME280;57790;51.356;-2.906;2022-07-29T03:21:31;101860.19;;;16.25;63.01
70370;BME280;57790;51.356;-2.906;2022-07-29T03:24:34;101858.16;;;16.27;63.02
70370;BME280;57790;51.356;-2.906;2022-07-29T03:27:35;101874.22;;;16.27;62.97
70370;BME280;57790;51.356;-2.906;2022-07-29T03:30:35;101866.19;;;16.19;62.98
70370;BME280;57790;51.356;-2.906;2022-07-29T03:33:36;101869.41;;;16.14;63.40
70370;BME280;57790;51.356;-2.906;2022-07-29T03:36:36;101871.25;;;16.14;63.65
70370;BME280;57790;51.356;-2.906;2022-07-29T03:39:40;101875.63;;;16.06;63.76
70370;BME280;57790;51.356;-2.906;2022-07-29T03:42:42;101869.09;;;16.01;63.47
70370;BME280;57790;51.356;-2.906;2022-07-29T03:45:47;101872.28;;;15.96;63.91
70370;BME280;57790;51.356;-2.906;2022-07-29T03:48:50;101872.47;;;15.95;64.12
70370;BME280;57790;51.356;-2.906;2022-07-29T03:51:52;101872.81;;;15.92;64.15
70370;BME280;57790;51.356;-2.906;2022-07-29T03:54:53;101879.13;;;15.91;64.56
70370;BME280;57790;51.356;-2.906;2022-07-29T03:57:55;101889.50;;;15.86;64.23
70370;BME280;57790;51.356;-2.906;2022-07-29T04:00:57;101885.00;;;15.86;64.58
70370;BME280;57790;51.356;-2.906;2022-07-29T04:03:57;101895.34;;;15.89;64.47
70370;BME280;57790;51.356;-2.906;2022-07-29T04:06:58;101900.69;;;15.89;65.12
70370;BME280;57790;51.356;-2.906;2022-07-29T04:09:58;101894.50;;;15.89;64.90
70370;BME280;57790;51.356;-2.906;2022-07-29T04:12:59;101893.84;;;15.87;64.80
70370;BME280;57790;51.356;-2.906;2022-07-29T04:16:00;101901.38;;;15.91;65.07
70370;BME280;57790;51.356;-2.906;2022-07-29T04:19:00;101902.38;;;15.90;65.11
70370;BME280;57790;51.356;-2.906;2022-07-29T04:22:00;101903.19;;;15.91;64.91
70370;BME280;57790;51.356;-2.906;2022-07-29T04:25:01;101908.22;;;15.94;65.11
70370;BME280;57790;51.356;-2.906;2022-07-29T04:28:01;101903.91;;;15.93;65.05
70370;BME280;57790;51.356;-2.906;2022-07-29T04:31:02;101906.75;;;15.91;65.49
70370;BME280;57790;51.356;-2.906;2022-07-29T04:34:02;101905.03;;;15.90;65.56
70370;BME280;57790;51.356;-2.906;2022-07-29T04:37:02;101900.53;;;15.91;65.90
70370;BME280;57790;51.356;-2.906;2022-07-29T04:40:03;101906.88;;;15.90;65.87
70370;BME280;57790;51.356;-2.906;2022-07-29T04:43:04;101904.91;;;15.92;65.62
70370;BME280;57790;51.356;-2.906;2022-07-29T04:46:06;101904.19;;;15.90;65.49
70370;BME280;57790;51.356;-2.906;2022-07-29T04:49:06;101904.53;;;15.87;65.69
70370;BME280;57790;51.356;-2.906;2022-07-29T04:52:07;101910.25;;;15.84;66.02
70370;BME280;57790;51.356;-2.906;2022-07-29T04:55:08;101918.25;;;15.84;66.34
70370;BME280;57790;51.356;-2.906;2022-07-29T04:58:09;101916.94;;;15.80;66.36
70370;BME280;57790;51.356;-2.906;2022-07-29T05:01:09;101919.78;;;15.78;66.49
70370;BME280;57790;51.356;-2.906;2022-07-29T05:04:10;101915.44;;;15.77;66.23
70370;BME280;57790;51.356;-2.906;2022-07-29T05:07:10;101926.13;;;15.77;66.30
70370;BME280;57790;51.356;-2.906;2022-07-29T05:10:10;101923.59;;;15.75;66.05
70370;BME280;57790;51.356;-2.906;2022-07-29T05:13:11;101931.63;;;15.75;66.58
70370;BME280;57790;51.356;-2.906;2022-07-29T05:16:13;101923.28;;;15.70;66.22
70370;BME280;57790;51.356;-2.906;2022-07-29T05:19:13;101928.78;;;15.61;66.61
70370;BME280;57790;51.356;-2.906;2022-07-29T05:22:15;101922.13;;;15.65;66.48
70370;BME280;57790;51.356;-2.906;2022-07-29T05:25:15;101919.94;;;15.68;66.49
70370;BME280;57790;51.356;-2.906;2022-07-29T05:28:15;101929.66;;;15.77;66.49
70370;BME280;57790;51.356;-2.906;2022-07-29T05:31:16;101938.16;;;15.81;66.51
70370;BME280;57790;51.356;-2.906;2022-07-29T05:34:17;101938.81;;;15.83;66.04
70370;BME280;57790;51.356;-2.906;2022-07-29T05:37:20;101940.31;;;15.86;66.52
70370;BME280;57790;51.356;-2.906;2022-07-29T05:40:21;101939.31;;;15.87;66.11
70370;BME280;57790;51.356;-2.906;2022-07-29T05:43:21;101942.00;;;15.87;66.17
70370;BME280;57790;51.356;-2.906;2022-07-29T05:46:22;101952.22;;;15.91;65.81
70370;BME280;57790;51.356;-2.906;2022-07-29T05:49:22;101947.34;;;15.95;65.58
70370;BME280;57790;51.356;-2.906;2022-07-29T05:52:23;101941.84;;;15.96;65.82
70370;BME280;57790;51.356;-2.906;2022-07-29T05:55:23;101936.13;;;15.99;65.32
70370;BME280;57790;51.356;-2.906;2022-07-29T05:58:23;101939.81;;;15.98;65.37
70370;BME280;57790;51.356;-2.906;2022-07-29T06:01:24;101939.47;;;16.01;65.74
70370;BME280;57790;51.356;-2.906;2022-07-29T06:04:24;101949.00;;;16.04;65.81
70370;BME280;57790;51.356;-2.906;2022-07-29T06:07:25;101952.50;;;16.13;65.71
70370;BME280;57790;51.356;-2.906;2022-07-29T06:10:25;101956.84;;;16.22;65.84
70370;BME280;57790;51.356;-2.906;2022-07-29T06:13:26;101967.53;;;16.30;65.73
70370;BME280;57790;51.356;-2.906;2022-07-29T06:16:27;101971.88;;;16.39;65.43
70370;BME280;57790;51.356;-2.906;2022-07-29T06:19:27;101973.38;;;16.50;64.81
70370;BME280;57790;51.356;-2.906;2022-07-29T06:22:28;101970.66;;;16.58;64.67
70370;BME280;57790;51.356;-2.906;2022-07-29T06:25:28;101967.81;;;16.68;64.57
70370;BME280;57790;51.356;-2.906;2022-07-29T06:28:29;101969.31;;;16.78;64.26
70370;BME280;57790;51.356;-2.906;2022-07-29T06:31:29;101969.75;;;16.90;64.49
70370;BME280;57790;51.356;-2.906;2022-07-29T06:34:30;101973.34;;;17.05;63.92
70370;BME280;57790;51.356;-2.906;2022-07-29T06:37:30;101970.13;;;17.18;63.42
70370;BME280;57790;51.356;-2.906;2022-07-29T06:40:30;101963.16;;;17.32;63.25
70370;BME280;57790;51.356;-2.906;2022-07-29T06:43:50;101962.41;;;17.46;63.18
70370;BME280;57790;51.356;-2.906;2022-07-29T06:46:51;101973.38;;;17.59;63.17
70370;BME280;57790;51.356;-2.906;2022-07-29T06:49:51;101976.53;;;17.71;63.31
70370;BME280;57790;51.356;-2.906;2022-07-29T06:52:52;101975.75;;;17.85;63.19
70370;BME280;57790;51.356;-2.906;2022-07-29T06:55:52;101980.75;;;17.88;63.02
70370;BME280;57790;51.356;-2.906;2022-07-29T06:58:52;101985.94;;;17.90;62.38
70370;BME280;57790;51.356;-2.906;2022-07-29T07:01:53;101989.03;;;18.01;62.38
70370;BME280;57790;51.356;-2.906;2022-07-29T07:04:53;101990.31;;;18.05;61.82
70370;BME280;57790;51.356;-2.906;2022-07-29T07:07:54;101987.81;;;18.04;61.74
70370;BME280;57790;51.356;-2.906;2022-07-29T07:10:54;101988.28;;;18.07;61.55
70370;BME280;57790;51.356;-2.906;2022-07-29T07:13:55;101985.63;;;18.07;61.26
70370;BME280;57790;51.356;-2.906;2022-07-29T07:16:55;101975.38;;;18.11;61.85
70370;BME280;57790;51.356;-2.906;2022-07-29T07:19:55;101979.16;;;18.17;61.16
70370;BME280;57790;51.356;-2.906;2022-07-29T07:22:56;101979.94;;;18.25;61.26
70370;BME280;57790;51.356;-2.906;2022-07-29T07:25:56;101981.69;;;18.33;61.01
70370;BME280;57790;51.356;-2.906;2022-07-29T07:28:57;101978.28;;;18.39;60.50
70370;BME280;57790;51.356;-2.906;2022-07-29T07:31:57;101986.25;;;18.47;60.16
70370;BME280;57790;51.356;-2.906;2022-07-29T07:34:58;101987.66;;;18.58;60.66
70370;BME280;57790;51.356;-2.906;2022-07-29T07:37:59;101990.19;;;18.74;61.31
70370;BME280;57790;51.356;-2.906;2022-07-29T07:41:00;101978.16;;;18.85;59.93
70370;BME280;57790;51.356;-2.906;2022-07-29T07:44:01;101979.53;;;18.95;59.11
70370;BME280;57790;51.356;-2.906;2022-07-29T07:47:01;101979.31;;;19.12;59.38
70370;BME280;57790;51.356;-2.906;2022-07-29T07:50:03;101974.94;;;19.25;58.94
70370;BME280;57790;51.356;-2.906;2022-07-29T07:53:03;101979.25;;;19.41;58.95
70370;BME280;57790;51.356;-2.906;2022-07-29T07:56:04;101977.56;;;19.55;57.73
70370;BME280;57790;51.356;-2.906;2022-07-29T07:59:06;101988.72;;;19.73;57.65
70370;BME280;57790;51.356;-2.906;2022-07-29T08:02:08;101982.44;;;19.87;57.40
70370;BME280;57790;51.356;-2.906;2022-07-29T08:05:09;101988.38;;;20.04;56.53
70370;BME280;57790;51.356;-2.906;2022-07-29T08:08:10;101986.22;;;20.21;54.61
70370;BME280;57790;51.356;-2.906;2022-07-29T08:11:11;101991.22;;;20.45;54.15
70370;BME280;57790;51.356;-2.906;2022-07-29T08:14:11;101985.09;;;20.99;53.34
70370;BME280;57790;51.356;-2.906;2022-07-29T08:17:12;101980.97;;;21.84;50.66
70370;BME280;57790;51.356;-2.906;2022-07-29T08:20:12;101980.94;;;22.70;48.24
70370;BME280;57790;51.356;-2.906;2022-07-29T08:23:12;101980.19;;;23.53;46.16
70370;BME280;57790;51.356;-2.906;2022-07-29T08:26:13;101976.78;;;24.20;44.39
70370;BME280;57790;51.356;-2.906;2022-07-29T08:29:13;101969.19;;;24.90;42.43
70370;BME280;57790;51.356;-2.906;2022-07-29T08:32:14;101973.84;;;25.50;41.33
70370;BME280;57790;51.356;-2.906;2022-07-29T08:35:14;101976.34;;;26.05;39.61
70370;BME280;57790;51.356;-2.906;2022-07-29T08:38:15;101968.91;;;26.59;38.44
70370;BME280;57790;51.356;-2.906;2022-07-29T08:41:15;101968.09;;;27.10;37.54
70370;BME280;57790;51.356;-2.906;2022-07-29T08:44:20;101972.88;;;27.48;36.85
70370;BME280;57790;51.356;-2.906;2022-07-29T08:47:22;101968.25;;;27.77;35.96
70370;BME280;57790;51.356;-2.906;2022-07-29T08:50:22;101960.44;;;28.20;35.26
70370;BME280;57790;51.356;-2.906;2022-07-29T08:53:26;101955.78;;;28.75;34.45
70370;BME280;57790;51.356;-2.906;2022-07-29T08:56:27;101953.25;;;29.13;33.16
70370;BME280;57790;51.356;-2.906;2022-07-29T08:59:27;101952.34;;;29.56;32.34
70370;BME280;57790;51.356;-2.906;2022-07-29T09:02:35;101951.69;;;29.76;32.46
70370;BME280;57790;51.356;-2.906;2022-07-29T09:05:41;101955.38;;;30.24;31.40
70370;BME280;57790;51.356;-2.906;2022-07-29T09:08:42;101958.38;;;30.74;30.15
70370;BME280;57790;51.356;-2.906;2022-07-29T09:11:43;101963.59;;;30.81;29.74
70370;BME280;57790;51.356;-2.906;2022-07-29T09:14:46;101960.38;;;31.04;29.93
70370;BME280;57790;51.356;-2.906;2022-07-29T09:17:49;101961.56;;;31.34;29.70
70370;BME280;57790;51.356;-2.906;2022-07-29T09:20:53;101965.72;;;31.72;28.98
70370;BME280;57790;51.356;-2.906;2022-07-29T09:24:13;101969.00;;;32.20;28.23
70370;BME280;57790;51.356;-2.906;2022-07-29T09:27:24;101969.75;;;32.56;27.77
70370;BME280;57790;51.356;-2.906;2022-07-29T09:30:26;101969.66;;;32.87;27.39
70370;BME280;57790;51.356;-2.906;2022-07-29T09:33:34;101971.84;;;32.90;26.47
70370;BME280;57790;51.356;-2.906;2022-07-29T09:36:44;101971.25;;;32.93;26.66
70370;BME280;57790;51.356;-2.906;2022-07-29T09:39:44;101972.78;;;33.19;26.41
70370;BME280;57790;51.356;-2.906;2022-07-29T09:42:46;101972.31;;;33.02;26.73
70370;BME280;57790;51.356;-2.906;2022-07-29T09:45:47;101975.28;;;33.60;25.99
70370;BME280;57790;51.356;-2.906;2022-07-29T09:49:08;101973.69;;;34.41;24.75
70370;BME280;57790;51.356;-2.906;2022-07-29T09:52:09;101985.53;;;34.65;24.10
70370;BME280;57790;51.356;-2.906;2022-07-29T09:55:11;101981.38;;;34.92;24.38
70370;BME280;57790;51.356;-2.906;2022-07-29T09:58:18;101984.19;;;34.63;24.42
70370;BME280;57790;51.356;-2.906;2022-07-29T10:01:27;101992.22;;;34.06;25.63
70370;BME280;57790;51.356;-2.906;2022-07-29T10:04:38;101988.00;;;35.28;23.62
70370;BME280;57790;51.356;-2.906;2022-07-29T10:07:50;101984.53;;;35.60;23.17
70370;BME280;57790;51.356;-2.906;2022-07-29T10:10:51;101977.78;;;35.29;23.32
70370;BME280;57790;51.356;-2.906;2022-07-29T10:13:51;101979.56;;;35.76;23.05
70370;BME280;57790;51.356;-2.906;2022-07-29T10:16:52;101972.09;;;36.09;22.71
70370;BME280;57790;51.356;-2.906;2022-07-29T10:19:54;101973.00;;;33.23;26.34
70370;BME280;57790;51.356;-2.906;2022-07-29T10:22:55;101976.66;;;35.30;23.94
70370;BME280;57790;51.356;-2.906;2022-07-29T10:25:56;101979.47;;;36.27;22.47
70370;BME280;57790;51.356;-2.906;2022-07-29T10:28:56;101980.31;;;36.69;21.87
70370;BME280;57790;51.356;-2.906;2022-07-29T10:35:12;101973.91;;;37.46;21.33
70370;BME280;57790;51.356;-2.906;2022-07-29T10:38:27;101979.19;;;37.34;21.46
70370;BME280;57790;51.356;-2.906;2022-07-29T10:45:07;101976.16;;;37.89;20.76
70370;BME280;57790;51.356;-2.906;2022-07-29T10:48:08;101963.25;;;38.06;20.23
70370;BME280;57790;51.356;-2.906;2022-07-29T10:51:09;101957.69;;;38.06;20.43
70370;BME280;57790;51.356;-2.906;2022-07-29T10:54:10;101953.13;;;38.10;20.69
70370;BME280;57790;51.356;-2.906;2022-07-29T10:57:20;101958.13;;;38.22;20.54
70370;BME280;57790;51.356;-2.906;2022-07-29T11:00:28;101950.53;;;38.54;20.18
70370;BME280;57790;51.356;-2.906;2022-07-29T11:03:43;101954.13;;;38.54;19.98
70370;BME280;57790;51.356;-2.906;2022-07-29T11:13:45;101942.97;;;38.94;19.73
70370;BME280;57790;51.356;-2.906;2022-07-29T11:17:00;101947.22;;;39.17;19.49
70370;BME280;57790;51.356;-2.906;2022-07-29T11:20:39;101932.53;;;39.25;19.54
70370;BME280;57790;51.356;-2.906;2022-07-29T11:23:41;101932.34;;;39.65;18.99
70370;BME280;57790;51.356;-2.906;2022-07-29T11:26:44;101926.44;;;39.49;18.55
70370;BME280;57790;51.356;-2.906;2022-07-29T11:29:58;101927.59;;;38.88;19.33
70370;BME280;57790;51.356;-2.906;2022-07-29T11:33:01;101925.34;;;38.81;19.59
70370;BME280;57790;51.356;-2.906;2022-07-29T11:39:27;101905.56;;;39.43;18.79
70370;BME280;57790;51.356;-2.906;2022-07-29T11:42:36;101916.72;;;39.99;18.66
70370;BME280;57790;51.356;-2.906;2022-07-29T11:45:46;101907.22;;;40.00;18.68
70370;BME280;57790;51.356;-2.906;2022-07-29T11:48:48;101907.22;;;39.27;19.29
70370;BME280;57790;51.356;-2.906;2022-07-29T11:51:57;101917.63;;;39.65;18.98
70370;BME280;57790;51.356;-2.906;2022-07-29T11:54:57;101915.66;;;39.48;18.96
70370;BME280;57790;51.356;-2.906;2022-07-29T11:57:59;101924.56;;;39.88;18.62
70370;BME280;57790;51.356;-2.906;2022-07-29T12:01:00;101917.50;;;40.37;17.88
70370;BME280;57790;51.356;-2.906;2022-07-29T12:04:05;101917.06;;;40.27;18.07
70370;BME280;57790;51.356;-2.906;2022-07-29T12:07:06;101903.50;;;40.76;17.69
70370;BME280;57790;51.356;-2.906;2022-07-29T12:10:07;101916.84;;;40.61;18.08
70370;BME280;57790;51.356;-2.906;2022-07-29T12:13:09;101920.13;;;39.96;18.22
70370;BME280;57790;51.356;-2.906;2022-07-29T12:16:10;101928.34;;;39.83;18.73
70370;BME280;57790;51.356;-2.906;2022-07-29T12:19:10;101913.00;;;39.77;18.49
70370;BME280;57790;51.356;-2.906;2022-07-29T12:22:11;101916.44;;;39.74;18.67
70370;BME280;57790;51.356;-2.906;2022-07-29T12:25:13;101909.53;;;40.27;17.74
70370;BME280;57790;51.356;-2.906;2022-07-29T12:28:18;101917.78;;;39.68;18.41
70370;BME280;57790;51.356;-2.906;2022-07-29T12:31:19;101913.59;;;40.59;18.24
70370;BME280;57790;51.356;-2.906;2022-07-29T12:34:23;101901.97;;;40.36;18.10
70370;BME280;57790;51.356;-2.906;2022-07-29T12:37:24;101895.72;;;40.69;17.84
70370;BME280;57790;51.356;-2.906;2022-07-29T12:40:24;101895.13;;;40.84;17.32
70370;BME280;57790;51.356;-2.906;2022-07-29T12:43:26;101901.47;;;40.34;17.94
70370;BME280;57790;51.356;-2.906;2022-07-29T12:46:27;101890.22;;;40.81;17.55
70370;BME280;57790;51.356;-2.906;2022-07-29T12:49:27;101914.56;;;39.96;18.03
70370;BME280;57790;51.356;-2.906;2022-07-29T12:52:30;101907.38;;;39.39;19.01
70370;BME280;57790;51.356;-2.906;2022-07-29T12:55:45;101910.41;;;38.03;20.37
70370;BME280;57790;51.356;-2.906;2022-07-29T12:58:48;101908.19;;;39.05;19.50
70370;BME280;57790;51.356;-2.906;2022-07-29T13:01:50;101906.25;;;39.87;18.43
70370;BME280;57790;51.356;-2.906;2022-07-29T13:04:58;101894.53;;;40.20;18.01
70370;BME280;57790;51.356;-2.906;2022-07-29T13:08:15;101906.28;;;40.55;17.93
70370;BME280;57790;51.356;-2.906;2022-07-29T13:11:38;101908.97;;;39.66;18.72
70370;BME280;57790;51.356;-2.906;2022-07-29T13:14:47;101908.69;;;39.24;19.10
70370;BME280;57790;51.356;-2.906;2022-07-29T13:17:47;101911.00;;;39.22;19.24
70370;BME280;57790;51.356;-2.906;2022-07-29T13:20:48;101902.09;;;39.64;19.06
70370;BME280;57790;51.356;-2.906;2022-07-29T13:23:49;101904.09;;;39.03;19.85
70370;BME280;57790;51.356;-2.906;2022-07-29T13:26:49;101902.81;;;39.00;19.52
70370;BME280;57790;51.356;-2.906;2022-07-29T13:29:52;101886.97;;;38.83;19.45
70370;BME280;57790;51.356;-2.906;2022-07-29T13:32:53;101892.84;;;38.73;19.92
70370;BME280;57790;51.356;-2.906;2022-07-29T13:35:55;101906.53;;;39.47;19.21
70370;BME280;57790;51.356;-2.906;2022-07-29T13:38:55;101899.22;;;38.99;19.39
70370;BME280;57790;51.356;-2.906;2022-07-29T13:41:56;101895.00;;;38.93;19.50
70370;BME280;57790;51.356;-2.906;2022-07-29T13:44:56;101889.88;;;38.04;20.57
70370;BME280;57790;51.356;-2.906;2022-07-29T13:47:57;101890.03;;;37.68;21.35
70370;BME280;57790;51.356;-2.906;2022-07-29T13:50:57;101880.94;;;37.22;21.57
70370;BME280;57790;51.356;-2.906;2022-07-29T13:53:57;101879.72;;;36.92;21.76
70370;BME280;57790;51.356;-2.906;2022-07-29T13:56:58;101880.66;;;36.88;21.88
70370;BME280;57790;51.356;-2.906;2022-07-29T13:59:58;101888.56;;;36.81;21.70
70370;BME280;57790;51.356;-2.906;2022-07-29T14:02:58;101900.31;;;36.37;22.40
70370;BME280;57790;51.356;-2.906;2022-07-29T14:05:59;101890.75;;;36.15;22.49
70370;BME280;57790;51.356;-2.906;2022-07-29T14:09:00;101887.09;;;35.08;23.58
70370;BME280;57790;51.356;-2.906;2022-07-29T14:12:00;101884.38;;;34.47;25.12
70370;BME280;57790;51.356;-2.906;2022-07-29T14:15:02;101882.16;;;33.72;26.40
70370;BME280;57790;51.356;-2.906;2022-07-29T14:18:03;101885.44;;;33.06;27.90
70370;BME280;57790;51.356;-2.906;2022-07-29T14:21:03;101883.81;;;32.50;28.21
70370;BME280;57790;51.356;-2.906;2022-07-29T14:24:04;101880.06;;;32.16;28.48
70370;BME280;57790;51.356;-2.906;2022-07-29T14:27:06;101876.88;;;31.73;29.96
70370;BME280;57790;51.356;-2.906;2022-07-29T14:30:07;101887.56;;;31.44;30.43
70370;BME280;57790;51.356;-2.906;2022-07-29T14:33:07;101879.31;;;31.24;30.65
70370;BME280;57790;51.356;-2.906;2022-07-29T14:36:08;101882.03;;;31.08;31.12
70370;BME280;57790;51.356;-2.906;2022-07-29T14:39:09;101879.84;;;31.11;30.06
70370;BME280;57790;51.356;-2.906;2022-07-29T14:42:10;101877.63;;;30.92;31.33
70370;BME280;57790;51.356;-2.906;2022-07-29T14:45:11;101878.72;;;30.86;31.19
70370;BME280;57790;51.356;-2.906;2022-07-29T14:48:11;101867.19;;;30.74;30.90
70370;BME280;57790;51.356;-2.906;2022-07-29T14:51:12;101864.72;;;30.77;31.58
70370;BME280;57790;51.356;-2.906;2022-07-29T14:54:12;101869.41;;;30.87;31.14
70370;BME280;57790;51.356;-2.906;2022-07-29T14:57:13;101868.81;;;30.75;30.99
70370;BME280;57790;51.356;-2.906;2022-07-29T15:00:13;101860.06;;;30.73;29.82
70370;BME280;57790;51.356;-2.906;2022-07-29T15:03:14;101855.31;;;30.58;31.60
70370;BME280;57790;51.356;-2.906;2022-07-29T15:06:15;101856.75;;;30.71;31.25
70370;BME280;57790;51.356;-2.906;2022-07-29T15:09:15;101859.72;;;30.59;31.68
70370;BME280;57790;51.356;-2.906;2022-07-29T15:12:18;101845.94;;;30.34;31.74
70370;BME280;57790;51.356;-2.906;2022-07-29T15:15:18;101847.31;;;30.36;32.00
70370;BME280;57790;51.356;-2.906;2022-07-29T15:18:19;101837.44;;;30.30;31.99
70370;BME280;57790;51.356;-2.906;2022-07-29T15:21:19;101832.50;;;30.32;32.05
70370;BME280;57790;51.356;-2.906;2022-07-29T15:24:20;101836.53;;;30.09;32.22
70370;BME280;57790;51.356;-2.906;2022-07-29T15:27:20;101833.44;;;30.01;32.51
70370;BME280;57790;51.356;-2.906;2022-07-29T15:30:21;101836.13;;;29.90;32.25
70370;BME280;57790;51.356;-2.906;2022-07-29T15:33:21;101830.16;;;30.04;32.20
70370;BME280;57790;51.356;-2.906;2022-07-29T15:36:21;101839.19;;;29.99;31.75
70370;BME280;57790;51.356;-2.906;2022-07-29T15:39:22;101846.78;;;29.92;32.39
70370;BME280;57790;51.356;-2.906;2022-07-29T15:42:22;101838.84;;;29.90;32.19
70370;BME280;57790;51.356;-2.906;2022-07-29T15:45:23;101839.00;;;29.69;32.25
70370;BME280;57790;51.356;-2.906;2022-07-29T15:48:23;101843.22;;;29.49;33.19
70370;BME280;57790;51.356;-2.906;2022-07-29T15:51:23;101851.88;;;29.41;33.51
70370;BME280;57790;51.356;-2.906;2022-07-29T15:54:24;101845.94;;;29.49;33.27
70370;BME280;57790;51.356;-2.906;2022-07-29T15:57:27;101843.97;;;29.40;33.32
70370;BME280;57790;51.356;-2.906;2022-07-29T16:00:27;101849.78;;;29.21;33.45
70370;BME280;57790;51.356;-2.906;2022-07-29T16:03:28;101854.13;;;29.17;33.20